createdAt,value
2022-08-28T00:00:17.245Z,1012.7
2022-08-28T00:02:17.348Z,1012.7
2022-08-28T00:04:17.393Z,1012.7
2022-08-28T00:06:17.311Z,1012.7
2022-08-28T00:08:17.240Z,1012.6
2022-08-28T00:10:17.239Z,1012.8
2022-08-28T00:12:17.285Z,1012.7
2022-08-28T00:14:17.266Z,1012.6
2022-08-28T00:16:17.351Z,1012.6
2022-08-28T00:18:17.340Z,1012.6
2022-08-28T00:20:17.258Z,1012.6
2022-08-28T00:22:17.278Z,1012.7
2022-08-28T00:24:17.287Z,1012.6
2022-08-28T00:26:17.277Z,1012.7
2022-08-28T00:28:23.834Z,1012.7
2022-08-28T00:30:17.277Z,1012.6
2022-08-28T00:32:17.275Z,1012.7
2022-08-28T00:34:17.270Z,1012.6
2022-08-28T00:36:17.273Z,1012.7
2022-08-28T00:38:17.255Z,1012.7
2022-08-28T00:40:17.338Z,1012.7
2022-08-28T00:42:17.282Z,1012.6
2022-08-28T00:44:17.286Z,1012.7
2022-08-28T00:46:17.362Z,1012.7
2022-08-28T00:48:17.272Z,1012.7
2022-08-28T00:50:17.313Z,1012.8
2022-08-28T00:52:17.268Z,1012.7
2022-08-28T00:54:17.292Z,1012.7
2022-08-28T00:56:17.258Z,1012.6
2022-08-28T00:58:17.268Z,1012.7
2022-08-28T01:00:17.262Z,1012.6
2022-08-28T01:02:17.283Z,1012.6
2022-08-28T01:04:17.292Z,1012.6
2022-08-28T01:06:17.325Z,1012.7
2022-08-28T01:08:17.366Z,1012.7
2022-08-28T01:10:17.291Z,1012.6
2022-08-28T01:12:17.304Z,1012.6
2022-08-28T01:14:17.311Z,1012.7
2022-08-28T01:16:17.387Z,1012.8
2022-08-28T01:18:17.382Z,1012.8
2022-08-28T01:20:17.329Z,1012.8
2022-08-28T01:22:17.321Z,1012.7
2022-08-28T01:24:17.309Z,1012.8
2022-08-28T01:26:17.322Z,1012.7
2022-08-28T01:28:17.320Z,1012.8
2022-08-28T01:30:17.344Z,1012.8
2022-08-28T01:32:17.335Z,1012.8
2022-08-28T01:34:17.327Z,1012.8
2022-08-28T01:36:17.580Z,1012.8
2022-08-28T01:38:19.582Z,1012.8
2022-08-28T01:40:17.451Z,1012.7
2022-08-28T01:42:17.352Z,1012.8
2022-08-28T01:44:17.929Z,1012.8
2022-08-28T01:46:17.497Z,1012.9
2022-08-28T01:48:17.390Z,1012.9
2022-08-28T01:50:17.343Z,1012.8
2022-08-28T01:52:17.396Z,1012.8
2022-08-28T01:54:17.461Z,1012.8
2022-08-28T01:56:17.374Z,1012.8
2022-08-28T01:58:17.371Z,1012.7
2022-08-28T02:00:17.318Z,1012.8
2022-08-28T02:02:17.362Z,1012.8
2022-08-28T02:04:17.415Z,1012.8
2022-08-28T02:06:17.352Z,1012.7
2022-08-28T02:08:17.364Z,1012.9
2022-08-28T02:10:17.352Z,1012.8
2022-08-28T02:12:17.367Z,1012.8
2022-08-28T02:14:17.346Z,1012.8
2022-08-28T02:16:17.408Z,1012.9
2022-08-28T02:18:17.368Z,1012.9
2022-08-28T02:20:17.338Z,1012.9
2022-08-28T02:22:17.384Z,1012.9
2022-08-28T02:24:17.379Z,1012.9
2022-08-28T02:26:17.344Z,1012.9
2022-08-28T02:28:17.369Z,1012.9
2022-08-28T02:30:17.393Z,1012.9
2022-08-28T02:32:17.351Z,1013.0
2022-08-28T02:34:17.429Z,1012.9
2022-08-28T02:36:17.367Z,1012.9
2022-08-28T02:38:17.383Z,1012.8
2022-08-28T02:40:17.473Z,1013.0
2022-08-28T02:42:17.381Z,1012.9
2022-08-28T02:44:17.405Z,1012.9
2022-08-28T02:46:17.457Z,1013.0
2022-08-28T02:48:17.739Z,1013.0
2022-08-28T02:50:17.387Z,1012.9
2022-08-28T02:52:17.368Z,1013.1
2022-08-28T02:54:18.540Z,1013.0
2022-08-28T02:56:17.411Z,1013.0
2022-08-28T02:58:17.391Z,1013.0
2022-08-28T03:00:17.407Z,1013.0
2022-08-28T03:02:17.470Z,1012.8
2022-08-28T03:04:17.403Z,1013.0
2022-08-28T03:06:17.391Z,1013.0
2022-08-28T03:08:17.416Z,1013.0
2022-08-28T03:10:17.408Z,1013.1
2022-08-28T03:12:17.431Z,1012.9
2022-08-28T03:14:17.410Z,1013.0
2022-08-28T03:16:17.482Z,1013.0
2022-08-28T03:18:17.420Z,1013.0
2022-08-28T03:20:17.462Z,1012.9
2022-08-28T03:22:17.520Z,1012.9
2022-08-28T03:24:17.443Z,1013.0
2022-08-28T03:26:17.445Z,1013.0
2022-08-28T03:28:17.459Z,1013.0
2022-08-28T03:30:17.450Z,1013.1
2022-08-28T03:32:17.889Z,1013.0
2022-08-28T03:34:17.871Z,1013.0
2022-08-28T03:36:17.803Z,1013.0
2022-08-28T03:38:17.861Z,1013.1
2022-08-28T03:40:17.961Z,1013.2
2022-08-28T03:42:17.867Z,1013.1
2022-08-28T03:44:17.897Z,1013.0
2022-08-28T03:46:17.856Z,1013.2
2022-08-28T03:48:17.835Z,1013.2
2022-08-28T03:50:17.828Z,1013.2
2022-08-28T03:52:17.847Z,1013.1
2022-08-28T03:54:17.835Z,1013.2
2022-08-28T03:56:17.881Z,1013.0
2022-08-28T03:58:19.075Z,1013.2
2022-08-28T04:00:17.757Z,1013.2
2022-08-28T04:02:17.896Z,1013.1
2022-08-28T04:04:17.880Z,1013.2
2022-08-28T04:06:17.824Z,1013.1
2022-08-28T04:08:17.881Z,1013.2
2022-08-28T04:10:17.957Z,1013.2
2022-08-28T04:12:17.933Z,1013.2
2022-08-28T04:14:17.820Z,1013.2
2022-08-28T04:16:17.946Z,1013.2
2022-08-28T04:18:17.756Z,1013.3
2022-08-28T04:20:17.814Z,1013.3
2022-08-28T04:22:17.856Z,1013.4
2022-08-28T04:24:17.812Z,1013.4
2022-08-28T04:26:17.781Z,1013.4
2022-08-28T04:28:17.504Z,1013.4
2022-08-28T04:30:17.919Z,1013.4
2022-08-28T04:32:17.543Z,1013.3
2022-08-28T04:34:17.479Z,1013.4
2022-08-28T04:36:17.489Z,1013.4
2022-08-28T04:38:17.492Z,1013.4
2022-08-28T04:40:17.568Z,1013.5
2022-08-28T04:42:17.493Z,1013.4
2022-08-28T04:44:17.510Z,1013.5
2022-08-28T04:46:17.594Z,1013.6
2022-08-28T04:48:17.878Z,1013.5
2022-08-28T04:50:17.580Z,1013.4
2022-08-28T04:52:17.511Z,1013.3
2022-08-28T04:54:17.519Z,1013.5
2022-08-28T04:56:17.501Z,1013.6
2022-08-28T04:58:17.627Z,1013.6
2022-08-28T05:00:17.528Z,1013.6
2022-08-28T05:02:17.615Z,1013.7
2022-08-28T05:04:17.505Z,1013.7
2022-08-28T05:06:17.534Z,1013.7
2022-08-28T05:08:17.545Z,1013.7
2022-08-28T05:10:17.547Z,1013.7
2022-08-28T05:12:17.546Z,1013.7
2022-08-28T05:14:17.537Z,1013.7
2022-08-28T05:16:17.764Z,1013.8
2022-08-28T05:18:17.557Z,1013.7
2022-08-28T05:20:17.547Z,1013.8
2022-08-28T05:22:17.535Z,1013.8
2022-08-28T05:24:17.551Z,1013.9
2022-08-28T05:26:17.565Z,1013.8
2022-08-28T05:28:17.541Z,1013.8
2022-08-28T05:30:17.581Z,1013.9
2022-08-28T05:32:17.563Z,1014.0
2022-08-28T05:34:17.566Z,1014.0
2022-08-28T05:36:17.575Z,1014.0
2022-08-28T05:38:17.564Z,1014.1
2022-08-28T05:40:17.593Z,1014.1
2022-08-28T05:42:17.644Z,1014.1
2022-08-28T05:44:17.587Z,1014.1
2022-08-28T05:46:17.668Z,1014.2
2022-08-28T05:48:17.657Z,1014.2
2022-08-28T05:50:17.667Z,1014.2
2022-08-28T05:52:17.582Z,1014.3
2022-08-28T05:54:17.585Z,1014.2
2022-08-28T05:56:17.597Z,1014.2
2022-08-28T05:58:17.597Z,1014.2
2022-08-28T06:00:17.597Z,1014.3
2022-08-28T06:02:17.683Z,1014.2
2022-08-28T06:04:17.836Z,1014.2
2022-08-28T06:06:17.657Z,1014.3
2022-08-28T06:08:17.603Z,1014.3
2022-08-28T06:10:17.584Z,1014.4
2022-08-28T06:12:17.567Z,1014.3
2022-08-28T06:14:18.085Z,1014.4
2022-08-28T06:16:17.661Z,1014.4
2022-08-28T06:18:17.615Z,1014.4
2022-08-28T06:20:17.665Z,1014.4
2022-08-28T06:22:17.596Z,1014.3
2022-08-28T06:24:17.600Z,1014.4
2022-08-28T06:26:17.627Z,1014.5
2022-08-28T06:28:17.600Z,1014.5
2022-08-28T06:30:17.628Z,1014.5
2022-08-28T06:32:17.666Z,1014.4
2022-08-28T06:34:17.673Z,1014.5
2022-08-28T06:36:17.575Z,1014.5
2022-08-28T06:38:17.693Z,1014.4
2022-08-28T06:40:17.623Z,1014.5
2022-08-28T06:42:17.599Z,1014.5
2022-08-28T06:44:17.624Z,1014.5
2022-08-28T06:46:17.681Z,1014.6
2022-08-28T06:48:17.615Z,1014.5
2022-08-28T06:50:17.695Z,1014.6
2022-08-28T06:52:17.670Z,1014.6
2022-08-28T06:54:22.324Z,1014.7
2022-08-28T06:56:26.038Z,1014.7
2022-08-28T06:58:17.906Z,1014.7
2022-08-28T07:00:18.466Z,1014.7
2022-08-28T07:02:17.730Z,1014.7
2022-08-28T07:04:17.605Z,1014.7
2022-08-28T07:06:17.755Z,1014.8
2022-08-28T07:08:17.726Z,1014.8
2022-08-28T07:10:17.880Z,1014.8
2022-08-28T07:12:17.953Z,1014.8
2022-08-28T07:14:18.610Z,1014.8
2022-08-28T07:16:18.043Z,1014.9
2022-08-28T07:18:17.978Z,1014.9
2022-08-28T07:20:18.068Z,1014.9
2022-08-28T07:22:17.767Z,1014.9
2022-08-28T07:24:17.659Z,1014.9
2022-08-28T07:26:17.641Z,1014.9
2022-08-28T07:28:17.701Z,1014.9
2022-08-28T07:30:17.674Z,1014.9
2022-08-28T07:32:17.657Z,1015.1
2022-08-28T07:34:17.685Z,1015.1
2022-08-28T07:36:29.364Z,1015.1
2022-08-28T07:38:17.642Z,1015.0
2022-08-28T07:40:17.718Z,1015.0
2022-08-28T07:42:17.692Z,1015.0
2022-08-28T07:44:17.664Z,1015.0
2022-08-28T07:46:17.682Z,1015.1
2022-08-28T07:48:18.142Z,1015.1
2022-08-28T07:50:17.730Z,1015.1
2022-08-28T07:52:17.679Z,1015.1
2022-08-28T07:54:18.203Z,1015.2
2022-08-28T07:56:17.688Z,1015.1
2022-08-28T07:58:17.762Z,1015.2
2022-08-28T08:00:17.749Z,1015.3
2022-08-28T08:02:17.687Z,1015.2
2022-08-28T08:04:17.746Z,1015.1
2022-08-28T08:06:18.932Z,1015.2
2022-08-28T08:08:18.199Z,1015.2
2022-08-28T08:10:20.017Z,1015.2
2022-08-28T08:12:17.724Z,1015.1
2022-08-28T08:14:17.808Z,1015.3
2022-08-28T08:16:17.757Z,1015.3
2022-08-28T08:18:17.731Z,1015.3
2022-08-28T08:20:17.777Z,1015.3
2022-08-28T08:22:17.726Z,1015.4
2022-08-28T08:24:20.028Z,1015.4
2022-08-28T08:26:17.735Z,1015.3
2022-08-28T08:28:18.090Z,1015.4
2022-08-28T08:30:17.774Z,1015.3
2022-08-28T08:32:17.826Z,1015.4
2022-08-28T08:34:17.704Z,1015.4
2022-08-28T08:36:17.913Z,1015.4
2022-08-28T08:38:17.754Z,1015.4
2022-08-28T08:40:17.784Z,1015.4
2022-08-28T08:42:17.740Z,1015.5
2022-08-28T08:44:17.843Z,1015.4
2022-08-28T08:46:17.796Z,1015.4
2022-08-28T08:48:17.746Z,1015.4
2022-08-28T08:50:17.795Z,1015.4
2022-08-28T08:52:17.810Z,1015.5
2022-08-28T08:54:17.795Z,1015.4
2022-08-28T08:56:17.737Z,1015.5
2022-08-28T08:58:17.731Z,1015.5
2022-08-28T09:00:17.749Z,1015.5
2022-08-28T09:02:17.759Z,1015.5
2022-08-28T09:04:21.648Z,1015.6
2022-08-28T09:06:17.753Z,1015.6
2022-08-28T09:08:17.840Z,1015.4
2022-08-28T09:10:17.752Z,1015.5
2022-08-28T09:12:18.053Z,1015.5
2022-08-28T09:14:17.748Z,1015.6
2022-08-28T09:16:17.830Z,1015.5
2022-08-28T09:18:17.789Z,1015.6
2022-08-28T09:20:17.793Z,1015.5
2022-08-28T09:22:17.787Z,1015.5
2022-08-28T09:24:17.836Z,1015.6
2022-08-28T09:26:17.780Z,1015.5
2022-08-28T09:28:17.777Z,1015.6
2022-08-28T09:30:17.789Z,1015.6
2022-08-28T09:32:17.761Z,1015.6
2022-08-28T09:34:17.775Z,1015.6
2022-08-28T09:36:17.808Z,1015.6
2022-08-28T09:38:17.778Z,1015.6
2022-08-28T09:40:17.828Z,1015.7
2022-08-28T09:42:17.765Z,1015.6
2022-08-28T09:44:17.817Z,1015.5
2022-08-28T09:46:17.801Z,1015.6
2022-08-28T09:48:17.809Z,1015.6
2022-08-28T09:50:17.818Z,1015.6
2022-08-28T09:52:20.767Z,1015.5
2022-08-28T09:54:17.817Z,1015.5
2022-08-28T09:56:17.801Z,1015.6
2022-08-28T09:58:18.048Z,1015.6
2022-08-28T10:00:17.791Z,1015.5
2022-08-28T10:02:17.808Z,1015.5
2022-08-28T10:04:18.193Z,1015.4
2022-08-28T10:06:17.834Z,1015.5
2022-08-28T10:08:17.907Z,1015.7
2022-08-28T10:10:18.148Z,1015.7
2022-08-28T10:12:17.836Z,1015.6
2022-08-28T10:14:18.142Z,1015.6
2022-08-28T10:16:18.166Z,1015.6
2022-08-28T10:18:17.990Z,1015.5
2022-08-28T10:20:18.006Z,1015.5
2022-08-28T10:22:17.885Z,1015.5
2022-08-28T10:24:23.347Z,1015.6
2022-08-28T10:26:18.088Z,1015.5
2022-08-28T10:28:17.865Z,1015.6
2022-08-28T10:30:18.189Z,1015.6
2022-08-28T10:32:18.139Z,1015.7
2022-08-28T10:34:17.851Z,1015.6
2022-08-28T10:36:28.726Z,1015.7
2022-08-28T10:38:17.855Z,1015.7
2022-08-28T10:40:18.033Z,1015.7
2022-08-28T10:42:17.946Z,1015.7
2022-08-28T10:44:17.849Z,1015.7
2022-08-28T10:46:17.933Z,1015.7
2022-08-28T10:48:17.857Z,1015.7
2022-08-28T10:50:17.843Z,1015.6
2022-08-28T10:52:17.864Z,1015.7
2022-08-28T10:54:17.873Z,1015.7
2022-08-28T10:56:17.899Z,1015.6
2022-08-28T10:58:24.098Z,1015.7
2022-08-28T11:00:17.857Z,1015.7
2022-08-28T11:02:17.888Z,1015.7
2022-08-28T11:04:24.857Z,1015.6
2022-08-28T11:06:17.882Z,1015.6
2022-08-28T11:08:17.912Z,1015.7
2022-08-28T11:10:17.854Z,1015.7
2022-08-28T11:12:17.869Z,1015.8
2022-08-28T11:14:17.924Z,1015.9
2022-08-28T11:16:17.953Z,1015.8
2022-08-28T11:18:17.953Z,1015.9
2022-08-28T11:20:17.876Z,1015.9
2022-08-28T11:22:17.902Z,1015.8
2022-08-28T11:24:17.898Z,1015.9
2022-08-28T11:26:17.895Z,1015.8
2022-08-28T11:28:17.950Z,1015.8
2022-08-28T11:30:17.901Z,1015.8
2022-08-28T11:32:18.311Z,1015.9
2022-08-28T11:34:17.923Z,1016.0
2022-08-28T11:36:17.917Z,1016.0
2022-08-28T11:38:20.075Z,1015.8
2022-08-28T11:40:17.955Z,1015.8
2022-08-28T11:42:17.921Z,1015.6
2022-08-28T11:44:17.892Z,1015.8
2022-08-28T11:46:21.006Z,1015.7
2022-08-28T11:48:17.886Z,1015.7
2022-08-28T11:50:17.935Z,1015.9
2022-08-28T11:52:17.933Z,1015.8
2022-08-28T11:54:17.931Z,1015.8
2022-08-28T11:56:21.965Z,1016.0
2022-08-28T11:58:17.940Z,1015.9
2022-08-28T12:00:17.995Z,1015.9
2022-08-28T12:02:18.155Z,1015.9
2022-08-28T12:04:18.036Z,1016.0
2022-08-28T12:06:17.941Z,1015.9
2022-08-28T12:08:17.920Z,1015.9
2022-08-28T12:10:17.978Z,1015.8
2022-08-28T12:12:17.990Z,1015.9
2022-08-28T12:14:17.935Z,1016.0
2022-08-28T12:16:18.035Z,1016.0
2022-08-28T12:18:17.963Z,1015.8
2022-08-28T12:20:18.086Z,1015.9
2022-08-28T12:22:17.943Z,1016.0
2022-08-28T12:24:18.129Z,1016.0
2022-08-28T12:26:17.951Z,1016.0
2022-08-28T12:28:19.391Z,1015.9
2022-08-28T12:30:18.030Z,1016.0
2022-08-28T12:32:18.154Z,1016.0
2022-08-28T12:34:17.976Z,1015.9
2022-08-28T12:36:17.973Z,1015.9
2022-08-28T12:38:17.966Z,1016.0
2022-08-28T12:40:19.947Z,1015.9
2022-08-28T12:42:18.287Z,1015.8
2022-08-28T12:44:18.798Z,1015.8
2022-08-28T12:46:19.402Z,1015.8
2022-08-28T12:48:18.059Z,1015.9
2022-08-28T12:50:18.141Z,1015.9
2022-08-28T12:52:18.316Z,1015.9
2022-08-28T12:54:17.996Z,1015.8
2022-08-28T12:56:17.995Z,1015.8
2022-08-28T12:58:17.991Z,1015.9
2022-08-28T13:00:18.018Z,1015.8
2022-08-28T13:02:18.195Z,1015.8
2022-08-28T13:04:18.034Z,1015.7
2022-08-28T13:06:18.101Z,1015.9
2022-08-28T13:08:18.030Z,1015.8
2022-08-28T13:10:18.169Z,1015.8
2022-08-28T13:12:18.081Z,1015.7
2022-08-28T13:14:18.258Z,1015.7
2022-08-28T13:16:18.256Z,1015.8
2022-08-28T13:18:18.039Z,1015.7
2022-08-28T13:20:18.049Z,1015.8
2022-08-28T13:22:18.031Z,1015.7
2022-08-28T13:24:18.102Z,1015.8
2022-08-28T13:26:18.116Z,1015.8
2022-08-28T13:28:18.050Z,1015.8
2022-08-28T13:30:18.049Z,1015.9
2022-08-28T13:32:18.035Z,1015.8
2022-08-28T13:34:18.332Z,1015.8
2022-08-28T13:36:18.070Z,1015.9
2022-08-28T13:38:18.051Z,1015.8
2022-08-28T13:40:44.448Z,1015.9
2022-08-28T13:42:18.320Z,1015.9
2022-08-28T13:44:19.075Z,1015.9
2022-08-28T13:46:18.143Z,1015.8
2022-08-28T13:48:18.271Z,1015.8
2022-08-28T13:50:23.136Z,1015.9
2022-08-28T13:52:18.183Z,1015.8
2022-08-28T13:54:18.311Z,1015.8
2022-08-28T13:56:18.167Z,1015.9
2022-08-28T13:58:18.101Z,1015.8
2022-08-28T14:00:18.101Z,1015.9
2022-08-28T14:02:18.173Z,1015.9
2022-08-28T14:04:18.453Z,1015.9
2022-08-28T14:06:18.051Z,1015.9
2022-08-28T14:08:18.089Z,1015.9
2022-08-28T14:10:18.105Z,1015.8
2022-08-28T14:12:18.067Z,1015.8
2022-08-28T14:14:18.045Z,1015.8
2022-08-28T14:16:18.214Z,1015.9
2022-08-28T14:18:18.061Z,1015.8
2022-08-28T14:20:19.064Z,1015.7
2022-08-28T14:22:18.115Z,1015.7
2022-08-28T14:24:18.297Z,1015.7
2022-08-28T14:26:18.481Z,1015.7
2022-08-28T14:28:18.122Z,1015.8
2022-08-28T14:30:18.155Z,1015.7
2022-08-28T14:32:18.154Z,1015.8
2022-08-28T14:34:18.099Z,1015.6
2022-08-28T14:36:18.083Z,1015.7
2022-08-28T14:38:18.101Z,1015.8
2022-08-28T14:40:18.184Z,1015.8
2022-08-28T14:42:18.089Z,1015.6
2022-08-28T14:44:18.129Z,1015.6
2022-08-28T14:46:18.116Z,1015.7
2022-08-28T14:48:18.116Z,1015.7
2022-08-28T14:50:23.089Z,1015.7
2022-08-28T14:52:18.106Z,1015.6
2022-08-28T14:54:18.159Z,1015.7
2022-08-28T14:56:18.109Z,1015.7
2022-08-28T14:58:18.124Z,1015.7
2022-08-28T15:00:18.098Z,1015.7
2022-08-28T15:02:18.128Z,1015.7
2022-08-28T15:04:18.155Z,1015.7
2022-08-28T15:06:18.115Z,1015.7
2022-08-28T15:08:18.102Z,1015.8
2022-08-28T15:10:18.228Z,1015.7
2022-08-28T15:12:18.118Z,1015.8
2022-08-28T15:14:18.129Z,1015.8
2022-08-28T15:16:18.138Z,1015.8
2022-08-28T15:18:18.178Z,1015.9
2022-08-28T15:20:18.188Z,1016.0
2022-08-28T15:22:27.161Z,1015.9
2022-08-28T15:24:18.151Z,1015.9
2022-08-28T15:26:18.140Z,1015.9
2022-08-28T15:28:18.138Z,1015.9
2022-08-28T15:30:18.154Z,1015.9
2022-08-28T15:32:18.417Z,1015.9
2022-08-28T15:34:18.504Z,1016.0
2022-08-28T15:36:18.607Z,1015.9
2022-08-28T15:38:18.521Z,1016.0
2022-08-28T15:40:18.242Z,1016.0
2022-08-28T15:42:18.108Z,1016.0
2022-08-28T15:44:18.141Z,1016.0
2022-08-28T15:46:18.127Z,1015.9
2022-08-28T15:48:18.156Z,1016.0
2022-08-28T15:50:20.024Z,1016.1
2022-08-28T15:52:18.204Z,1016.0
2022-08-28T15:54:18.159Z,1016.1
2022-08-28T15:56:18.157Z,1016.0
2022-08-28T15:58:18.164Z,1016.0
2022-08-28T16:00:18.179Z,1016.0
2022-08-28T16:02:18.194Z,1016.0
2022-08-28T16:04:18.133Z,1016.2
2022-08-28T16:06:18.170Z,1016.2
2022-08-28T16:08:18.406Z,1016.1
2022-08-28T16:10:18.209Z,1016.1
2022-08-28T16:12:18.201Z,1016.3
2022-08-28T16:14:21.021Z,1016.3
2022-08-28T16:16:18.257Z,1016.3
2022-08-28T16:18:18.215Z,1016.4
2022-08-28T16:20:18.288Z,1016.2
2022-08-28T16:22:18.168Z,1016.3
2022-08-28T16:24:18.228Z,1016.3
2022-08-28T16:26:18.185Z,1016.2
2022-08-28T16:28:18.299Z,1016.3
2022-08-28T16:30:18.251Z,1016.3
2022-08-28T16:32:18.196Z,1016.3
2022-08-28T16:34:19.420Z,1016.2
2022-08-28T16:36:18.207Z,1016.3
2022-08-28T16:38:18.186Z,1016.2
2022-08-28T16:40:18.272Z,1016.1
2022-08-28T16:42:18.212Z,1016.2
2022-08-28T16:44:18.224Z,1016.1
2022-08-28T16:46:18.254Z,1016.0
2022-08-28T16:48:18.280Z,1016.1
2022-08-28T16:50:18.218Z,1016.1
2022-08-28T16:52:18.230Z,1016.1
2022-08-28T16:54:18.303Z,1016.2
2022-08-28T16:56:18.205Z,1016.1
2022-08-28T16:58:18.645Z,1016.3
2022-08-28T17:00:18.263Z,1016.3
2022-08-28T17:02:18.647Z,1016.4
2022-08-28T17:04:18.426Z,1016.4
2022-08-28T17:06:18.221Z,1016.4
2022-08-28T17:08:18.228Z,1016.4
2022-08-28T17:10:18.247Z,1016.4
2022-08-28T17:12:18.245Z,1016.4
2022-08-28T17:14:18.277Z,1016.3
2022-08-28T17:16:18.366Z,1016.3
2022-08-28T17:18:18.267Z,1016.3
2022-08-28T17:20:18.298Z,1016.2
2022-08-28T17:22:18.255Z,1016.4
2022-08-28T17:24:18.259Z,1016.4
2022-08-28T17:26:18.263Z,1016.4
2022-08-28T17:28:18.365Z,1016.4
2022-08-28T17:30:18.278Z,1016.5
2022-08-28T17:32:18.287Z,1016.3
2022-08-28T17:34:20.528Z,1016.5
2022-08-28T17:36:32.730Z,1016.5
2022-08-28T17:38:18.273Z,1016.5
2022-08-28T17:40:18.409Z,1016.6
2022-08-28T17:42:23.667Z,1016.5
2022-08-28T17:44:18.292Z,1016.6
2022-08-28T17:46:18.341Z,1016.4
2022-08-28T17:48:19.350Z,1016.6
2022-08-28T17:50:18.286Z,1016.6
2022-08-28T17:52:18.273Z,1016.5
2022-08-28T17:54:18.420Z,1016.6
2022-08-28T17:56:18.308Z,1016.5
2022-08-28T17:58:18.340Z,1016.7
2022-08-28T18:00:18.928Z,1016.8
2022-08-28T18:02:18.403Z,1016.6
2022-08-28T18:04:23.250Z,1016.7
2022-08-28T18:06:18.336Z,1016.7
2022-08-28T18:08:18.285Z,1016.8
2022-08-28T18:10:18.299Z,1016.8
2022-08-28T18:12:18.277Z,1016.8
2022-08-28T18:14:18.297Z,1016.8
2022-08-28T18:16:18.434Z,1016.8
2022-08-28T18:18:18.332Z,1016.8
2022-08-28T18:20:18.430Z,1016.8
2022-08-28T18:22:18.287Z,1016.8
2022-08-28T18:24:18.323Z,1016.8
2022-08-28T18:26:18.313Z,1016.8
2022-08-28T18:28:22.362Z,1016.8
2022-08-28T18:30:18.306Z,1016.8
2022-08-28T18:32:18.308Z,1016.8
2022-08-28T18:34:18.396Z,1016.8
2022-08-28T18:36:18.388Z,1016.8
2022-08-28T18:38:19.085Z,1016.8
2022-08-28T18:40:18.411Z,1016.9
2022-08-28T18:42:18.430Z,1017.0
2022-08-28T18:44:21.239Z,1016.9
2022-08-28T18:46:18.409Z,1017.0
2022-08-28T18:48:18.503Z,1017.0
2022-08-28T18:50:18.331Z,1017.1
2022-08-28T18:52:18.349Z,1017.2
2022-08-28T18:54:18.439Z,1017.1
2022-08-28T18:56:18.340Z,1017.2
2022-08-28T18:58:18.337Z,1017.2
2022-08-28T19:00:18.378Z,1017.2
2022-08-28T19:02:18.623Z,1017.2
2022-08-28T19:04:18.344Z,1017.2
2022-08-28T19:06:18.343Z,1017.2
2022-08-28T19:08:18.493Z,1017.2
2022-08-28T19:10:32.760Z,1017.2
2022-08-28T19:12:18.385Z,1017.2
2022-08-28T19:14:18.510Z,1017.2
2022-08-28T19:16:18.669Z,1017.1
2022-08-28T19:18:23.348Z,1017.3
2022-08-28T19:20:18.479Z,1017.2
2022-08-28T19:22:18.342Z,1017.2
2022-08-28T19:24:18.367Z,1017.2
2022-08-28T19:26:18.381Z,1017.2
2022-08-28T19:28:18.575Z,1017.2
2022-08-28T19:30:18.374Z,1017.3
2022-08-28T19:32:18.630Z,1017.4
2022-08-28T19:34:18.363Z,1017.3
2022-08-28T19:36:18.432Z,1017.3
2022-08-28T19:38:18.794Z,1017.4
2022-08-28T19:40:18.555Z,1017.4
2022-08-28T19:42:18.392Z,1017.4
2022-08-28T19:44:18.729Z,1017.4
2022-08-28T19:46:19.946Z,1017.5
2022-08-28T19:48:18.376Z,1017.5
2022-08-28T19:50:18.686Z,1017.5
2022-08-28T19:52:18.398Z,1017.6
2022-08-28T19:54:18.421Z,1017.4
2022-08-28T19:56:18.404Z,1017.6
2022-08-28T19:58:18.423Z,1017.6
2022-08-28T20:00:18.531Z,1017.6
2022-08-28T20:02:23.539Z,1017.6
2022-08-28T20:04:18.516Z,1017.6
2022-08-28T20:06:18.519Z,1017.6
2022-08-28T20:08:18.603Z,1017.6
2022-08-28T20:10:19.759Z,1017.7
2022-08-28T20:12:19.492Z,1017.6
2022-08-28T20:14:18.537Z,1017.6
2022-08-28T20:16:18.896Z,1017.6
2022-08-28T20:18:18.721Z,1017.7
2022-08-28T20:20:18.423Z,1017.8
2022-08-28T20:22:18.654Z,1017.6
2022-08-28T20:24:18.424Z,1017.7
2022-08-28T20:26:18.464Z,1017.8
2022-08-28T20:28:18.394Z,1017.7
2022-08-28T20:30:19.087Z,1017.7
2022-08-28T20:32:18.381Z,1017.8
2022-08-28T20:34:18.417Z,1017.8
2022-08-28T20:36:21.302Z,1017.7
2022-08-28T20:38:18.402Z,1017.7
2022-08-28T20:40:18.474Z,1017.8
2022-08-28T20:42:18.437Z,1017.7
2022-08-28T20:44:23.404Z,1017.8
2022-08-28T20:46:18.509Z,1017.8
2022-08-28T20:48:18.464Z,1017.8
2022-08-28T20:50:18.411Z,1017.8
2022-08-28T20:52:18.484Z,1017.8
2022-08-28T20:54:18.458Z,1017.9
2022-08-28T20:56:18.437Z,1017.9
2022-08-28T20:58:18.431Z,1017.8
2022-08-28T21:00:18.463Z,1017.8
2022-08-28T21:02:18.559Z,1017.9
2022-08-28T21:04:18.626Z,1017.8
2022-08-28T21:06:18.503Z,1017.9
2022-08-28T21:08:18.484Z,1017.8
2022-08-28T21:10:18.486Z,1017.8
2022-08-28T21:12:18.598Z,1017.8
2022-08-28T21:14:18.584Z,1017.9
2022-08-28T21:16:18.615Z,1017.8
2022-08-28T21:18:18.528Z,1017.9
2022-08-28T21:20:18.523Z,1017.9
2022-08-28T21:22:18.525Z,1017.8
2022-08-28T21:24:18.512Z,1018.0
2022-08-28T21:26:18.539Z,1018.0
2022-08-28T21:28:18.476Z,1018.0
2022-08-28T21:30:18.479Z,1017.9
2022-08-28T21:32:18.516Z,1018.0
2022-08-28T21:34:18.605Z,1018.1
2022-08-28T21:36:18.532Z,1018.1
2022-08-28T21:38:18.654Z,1018.0
2022-08-28T21:40:18.773Z,1018.0
2022-08-28T21:42:18.543Z,1018.0
2022-08-28T21:44:18.680Z,1018.0
2022-08-28T21:46:18.786Z,1018.1
2022-08-28T21:48:18.660Z,1018.1
2022-08-28T21:50:18.637Z,1018.1
2022-08-28T21:52:18.588Z,1018.0
2022-08-28T21:54:18.658Z,1017.9
2022-08-28T21:56:18.555Z,1017.9
2022-08-28T21:58:18.573Z,1018.0
2022-08-28T22:00:18.559Z,1018.1
2022-08-28T22:02:18.544Z,1018.1
2022-08-28T22:04:18.490Z,1018.0
2022-08-28T22:06:18.512Z,1018.2
2022-08-28T22:08:18.498Z,1018.3
2022-08-28T22:10:18.496Z,1018.2
2022-08-28T22:12:18.531Z,1018.1
2022-08-28T22:14:18.516Z,1018.1
2022-08-28T22:16:19.114Z,1018.3
2022-08-28T22:18:18.865Z,1018.0
2022-08-28T22:20:18.772Z,1018.2
2022-08-28T22:22:18.556Z,1018.2
2022-08-28T22:24:18.543Z,1018.2
2022-08-28T22:26:18.516Z,1018.2
2022-08-28T22:28:18.536Z,1018.2
2022-08-28T22:30:18.545Z,1018.2
2022-08-28T22:32:18.640Z,1018.2
2022-08-28T22:34:18.542Z,1018.3
2022-08-28T22:36:18.532Z,1018.4
2022-08-28T22:38:18.552Z,1018.5
2022-08-28T22:40:18.588Z,1018.4
2022-08-28T22:42:18.571Z,1018.4
2022-08-28T22:44:18.570Z,1018.4
2022-08-28T22:46:18.758Z,1018.5
2022-08-28T22:48:18.574Z,1018.3
2022-08-28T22:50:18.557Z,1018.4
2022-08-28T22:52:18.575Z,1018.5
2022-08-28T22:54:18.679Z,1018.4
2022-08-28T22:56:18.555Z,1018.5
2022-08-28T22:58:18.603Z,1018.4
2022-08-28T23:00:18.576Z,1018.5
2022-08-28T23:02:18.583Z,1018.5
2022-08-28T23:04:18.687Z,1018.5
2022-08-28T23:06:18.582Z,1018.4
2022-08-28T23:08:18.798Z,1018.5
2022-08-28T23:10:18.564Z,1018.5
2022-08-28T23:12:18.578Z,1018.6
2022-08-28T23:14:18.650Z,1018.6
2022-08-28T23:16:18.681Z,1018.6
2022-08-28T23:18:18.582Z,1018.6
2022-08-28T23:20:18.583Z,1018.6
2022-08-28T23:22:18.582Z,1018.6
2022-08-28T23:24:18.586Z,1018.6
2022-08-28T23:26:18.579Z,1018.6
2022-08-28T23:28:18.801Z,1018.5
2022-08-28T23:30:18.568Z,1018.6
2022-08-28T23:32:18.704Z,1018.5
2022-08-28T23:34:18.651Z,1018.6
2022-08-28T23:36:18.614Z,1018.6
2022-08-28T23:38:18.610Z,1018.6
2022-08-28T23:40:18.668Z,1018.5
2022-08-28T23:42:18.628Z,1018.6
2022-08-28T23:44:18.614Z,1018.6
2022-08-28T23:46:18.735Z,1018.6
2022-08-28T23:48:18.755Z,1018.5
2022-08-28T23:50:16.241Z,1018.6
2022-08-28T23:52:16.249Z,1018.7
2022-08-28T23:54:16.117Z,1018.6
2022-08-28T23:56:16.107Z,1018.7
2022-08-28T23:58:16.131Z,1018.6
